createdAt,value
2022-11-07T00:00:53.024Z,1022.3
2022-11-07T00:06:30.211Z,1022.1
2022-11-07T00:11:43.998Z,1022.1
2022-11-07T00:17:30.190Z,1022.2
2022-11-07T00:22:46.837Z,1022.5
2022-11-07T00:28:26.065Z,1022.4
2022-11-07T00:33:57.144Z,1022.4
2022-11-07T00:39:32.299Z,1022.6
2022-11-07T00:45:09.660Z,1022.4
2022-11-07T00:50:41.800Z,1022.5
2022-11-07T00:55:59.517Z,1022.4
2022-11-07T01:01:31.600Z,1022.6
2022-11-07T01:07:07.363Z,1022.6
2022-11-07T01:13:01.264Z,1022.7
2022-11-07T01:18:25.075Z,1022.6
2022-11-07T01:24:04.096Z,1022.7
2022-11-07T01:29:28.001Z,1022.6
2022-11-07T01:35:11.860Z,1022.6
2022-11-07T01:40:42.538Z,1022.5
2022-11-07T01:45:52.521Z,1022.5
2022-11-07T01:51:29.430Z,1022.6
2022-11-07T01:57:07.455Z,1022.5
2022-11-07T02:02:39.082Z,1022.4
2022-11-07T02:08:20.568Z,1022.5
2022-11-07T02:13:34.879Z,1022.6
2022-11-07T02:19:14.979Z,1022.5
2022-11-07T02:24:35.202Z,1022.7
2022-11-07T02:30:08.288Z,1022.7
2022-11-07T02:35:55.165Z,1022.5
2022-11-07T02:41:25.590Z,1022.7
2022-11-07T02:46:58.410Z,1022.7
2022-11-07T02:52:22.678Z,1022.7
2022-11-07T02:57:59.155Z,1022.7
2022-11-07T03:03:24.750Z,1022.9
2022-11-07T03:09:00.020Z,1022.8
2022-11-07T03:14:50.526Z,1022.7
2022-11-07T03:20:24.234Z,1022.6
2022-11-07T03:25:35.991Z,1022.7
2022-11-07T03:31:10.352Z,1022.6
2022-11-07T03:36:49.075Z,1022.6
2022-11-07T03:42:23.650Z,1022.6
2022-11-07T03:47:38.571Z,1022.9
2022-11-07T03:53:26.803Z,1023
2022-11-07T03:59:06.680Z,1022.9
2022-11-07T04:04:18.565Z,1023.1
2022-11-07T04:10:03.360Z,1023.1
2022-11-07T04:15:29.834Z,1023.2
2022-11-07T04:20:52.356Z,1023.3
2022-11-07T04:26:41.641Z,1023.3
2022-11-07T04:32:07.671Z,1023.1
2022-11-07T04:37:31.315Z,1023.2
2022-11-07T04:43:01.403Z,1023.1
2022-11-07T04:48:46.806Z,1023.2
2022-11-07T04:54:08.759Z,1023.4
2022-11-07T04:59:37.101Z,1023.5
2022-11-07T05:05:12.503Z,1023.5
2022-11-07T05:10:52.558Z,1023.5
2022-11-07T05:16:20.396Z,1023.4
2022-11-07T05:21:59.406Z,1023.3
2022-11-07T05:27:29.169Z,1023.3
2022-11-07T05:32:55.593Z,1023.5
2022-11-07T05:38:46.415Z,1023.8
2022-11-07T05:44:00.454Z,1023.7
2022-11-07T05:49:38.940Z,1023.8
2022-11-07T05:55:06.152Z,1023.6
2022-11-07T06:00:46.509Z,1023.5
2022-11-07T06:06:15.087Z,1023.7
2022-11-07T06:11:56.581Z,1023.6
2022-11-07T06:17:11.728Z,1023.7
2022-11-07T06:22:47.562Z,1023.8
2022-11-07T06:28:30.779Z,1024
2022-11-07T06:34:04.304Z,1024.1
2022-11-07T06:39:17.571Z,1024.1
2022-11-07T06:44:49.649Z,1024.1
2022-11-07T06:50:30.749Z,1024
2022-11-07T06:55:57.880Z,1024.1
2022-11-07T07:01:41.943Z,1024.2
2022-11-07T07:07:13.568Z,1024.2
2022-11-07T07:12:41.498Z,1024.3
2022-11-07T07:18:04.397Z,1024.2
2022-11-07T07:23:34.134Z,1024.3
2022-11-07T07:29:06.331Z,1024.2
2022-11-07T07:34:59.831Z,1024.1
2022-11-07T07:40:23.797Z,1024.1
2022-11-07T07:45:54.583Z,1024
2022-11-07T07:51:12.169Z,1024
2022-11-07T07:56:49.328Z,1024.1
2022-11-07T08:02:43.200Z,1023.9
2022-11-07T08:08:05.314Z,1023.9
2022-11-07T08:13:51.731Z,1023.8
2022-11-07T08:19:08.357Z,1023.7
2022-11-07T08:24:56.822Z,1023.8
2022-11-07T08:30:27.391Z,1023.9
2022-11-07T08:35:42.167Z,1023.8
2022-11-07T08:41:32.187Z,1023.8
2022-11-07T08:46:43.645Z,1023.7
2022-11-07T08:52:28.103Z,1023.6
2022-11-07T08:58:18.253Z,1023.7
2022-11-07T09:03:44.635Z,1023.6
2022-11-07T09:09:02.028Z,1023.3
2022-11-07T09:14:32.408Z,1023.2
2022-11-07T09:20:04.371Z,1023.1
2022-11-07T09:25:52.430Z,1023.1
2022-11-07T09:31:10.261Z,1023
2022-11-07T09:37:09.139Z,1023
2022-11-07T09:42:34.942Z,1022.8
2022-11-07T09:48:10.391Z,1022.4
2022-11-07T09:53:36.256Z,1022.2
2022-11-07T09:58:59.328Z,1022.2
2022-11-07T10:04:36.571Z,1022.2
2022-11-07T10:10:10.815Z,1022
2022-11-07T10:15:51.766Z,1022
2022-11-07T10:21:37.417Z,1021.8
2022-11-07T10:26:49.528Z,1021.9
2022-11-07T10:32:41.294Z,1021.7
2022-11-07T10:38:04.952Z,1021.6
2022-11-07T10:43:34.810Z,1021.6
2022-11-07T10:49:01.481Z,1021.4
2022-11-07T10:54:48.581Z,1021.5
2022-11-07T11:00:06.404Z,1021.4
2022-11-07T11:05:53.131Z,1021.3
2022-11-07T11:11:29.266Z,1021.2
2022-11-07T11:17:06.509Z,1021.3
2022-11-07T11:22:23.550Z,1021.3
2022-11-07T11:27:54.015Z,1021.2
2022-11-07T11:33:44.153Z,1020.9
2022-11-07T11:39:06.905Z,1020.7
2022-11-07T11:44:40.129Z,1020.7
2022-11-07T11:50:28.889Z,1020.7
2022-11-07T11:55:51.154Z,1020.5
2022-11-07T12:01:33.202Z,1020.4
2022-11-07T12:07:13.763Z,1020.4
2022-11-07T12:12:33.318Z,1020.5
2022-11-07T12:18:24.082Z,1020.5
2022-11-07T12:23:56.153Z,1020.4
2022-11-07T12:29:13.201Z,1020.5
2022-11-07T12:35:01.522Z,1020.4
2022-11-07T12:40:40.793Z,1020.4
2022-11-07T12:45:48.093Z,1020.4
2022-11-07T12:51:25.489Z,1020.1
2022-11-07T12:57:15.435Z,1020
2022-11-07T13:02:52.092Z,1019.9
2022-11-07T13:08:18.193Z,1019.8
2022-11-07T13:13:42.391Z,1019.7
2022-11-07T13:19:32.576Z,1019.6
2022-11-07T13:24:54.568Z,1019.5
2022-11-07T13:30:38.858Z,1019.5
2022-11-07T13:36:06.298Z,1019.5
2022-11-07T13:41:48.917Z,1019.6
2022-11-07T13:47:28.767Z,1019.3
2022-11-07T13:52:51.403Z,1019.5
2022-11-07T13:58:31.246Z,1019.6
2022-11-07T14:04:09.965Z,1019.6
2022-11-07T14:09:47.490Z,1019.7
2022-11-07T14:15:15.748Z,1019.5
2022-11-07T14:20:54.042Z,1019.5
2022-11-07T14:26:12.132Z,1019.2
2022-11-07T14:32:10.940Z,1019.4
2022-11-07T14:37:22.084Z,1019.3
2022-11-07T14:43:09.490Z,1019.2
2022-11-07T14:48:55.658Z,1019.5
2022-11-07T14:54:23.135Z,1019.5
2022-11-07T14:59:46.893Z,1019.6
2022-11-07T15:05:11.065Z,1019.8
2022-11-07T15:11:05.744Z,1020
2022-11-07T15:16:32.855Z,1020
2022-11-07T15:22:03.521Z,1020.1
2022-11-07T15:27:22.781Z,1020.1
2022-11-07T15:33:09.957Z,1019.9
2022-11-07T15:38:42.194Z,1019.9
2022-11-07T15:44:14.159Z,1020
2022-11-07T15:49:57.196Z,1020.2
2022-11-07T15:55:34.109Z,1020.5
2022-11-07T16:00:40.646Z,1020.6
2022-11-07T16:06:17.697Z,1020.6
2022-11-07T16:12:03.279Z,1020.7
2022-11-07T16:17:30.419Z,1020.9
2022-11-07T16:22:58.151Z,1020.8
2022-11-07T16:28:51.717Z,1020.8
2022-11-07T16:33:58.065Z,1020.8
2022-11-07T16:39:54.464Z,1020.9
2022-11-07T16:45:25.225Z,1020.9
2022-11-07T16:50:39.373Z,1021
2022-11-07T16:56:34.193Z,1021
2022-11-07T17:02:00.287Z,1021.1
2022-11-07T17:07:30.771Z,1021.4
2022-11-07T17:12:49.786Z,1021.6
2022-11-07T17:18:19.995Z,1021.8
2022-11-07T17:29:46.028Z,1021.5
2022-11-07T17:35:37.719Z,1021
2022-11-07T17:40:44.505Z,1020.9
2022-11-07T17:46:06.036Z,1020.9
2022-11-07T17:51:53.911Z,1021
2022-11-07T17:57:18.634Z,1020.8
2022-11-07T18:02:47.280Z,1020.7
2022-11-07T18:08:46.241Z,1020.8
2022-11-07T18:14:07.095Z,1020.8
2022-11-07T18:19:37.765Z,1020.9
2022-11-07T18:25:06.771Z,1021
2022-11-07T18:30:51.021Z,1021.1
2022-11-07T18:36:25.897Z,1021.3
2022-11-07T18:41:45.493Z,1021.5
2022-11-07T18:47:11.076Z,1021.6
2022-11-07T18:52:52.054Z,1021.5
2022-11-07T18:58:30.810Z,1021.5
2022-11-07T19:03:57.958Z,1021.6
2022-11-07T19:09:28.379Z,1021.6
2022-11-07T19:15:05.316Z,1021.6
2022-11-07T19:20:28.705Z,1021.5
2022-11-07T19:26:05.381Z,1021.8
2022-11-07T19:31:48.827Z,1021.9
2022-11-07T19:37:20.022Z,1022
2022-11-07T19:42:41.718Z,1022
2022-11-07T19:48:05.932Z,1021.9
2022-11-07T19:53:43.545Z,1021.8
2022-11-07T19:59:28.426Z,1021.6
2022-11-07T20:04:57.522Z,1021.4
2022-11-07T20:10:36.577Z,1021.4
2022-11-07T20:15:46.465Z,1021.7
2022-11-07T20:21:21.289Z,1021.8
2022-11-07T20:26:58.956Z,1022.1
2022-11-07T20:32:36.727Z,1022.2
2022-11-07T20:38:02.262Z,1022.3
2022-11-07T20:43:45.743Z,1022.3
2022-11-07T20:49:18.581Z,1022.4
2022-11-07T20:54:55.190Z,1022.5
2022-11-07T21:00:08.845Z,1022.4
2022-11-07T21:05:40.536Z,1022.6
2022-11-07T21:11:35.790Z,1022.7
2022-11-07T21:17:06.178Z,1022.5
2022-11-07T21:22:19.941Z,1022.4
2022-11-07T21:27:52.245Z,1022.4
2022-11-07T21:33:34.980Z,1022.4
2022-11-07T21:39:04.352Z,1022.5
2022-11-07T21:44:29.240Z,1022.4
2022-11-07T21:50:18.034Z,1022.4
2022-11-07T21:55:46.312Z,1022.4
2022-11-07T22:01:13.129Z,1022.3
2022-11-07T22:06:33.569Z,1022.4
2022-11-07T22:12:20.937Z,1022.3
2022-11-07T22:17:51.493Z,1022.4
2022-11-07T22:23:32.014Z,1022.2
2022-11-07T22:29:04.665Z,1022.1
2022-11-07T22:34:28.502Z,1022.1
2022-11-07T22:40:15.361Z,1022.1
2022-11-07T22:45:44.368Z,1022.3
2022-11-07T22:50:57.282Z,1022.3
2022-11-07T22:56:42.054Z,1022.3
2022-11-07T23:02:04.364Z,1022.1
2022-11-07T23:07:34.248Z,1022.1
2022-11-07T23:13:18.009Z,1021.8
2022-11-07T23:18:32.441Z,1021.9
2022-11-07T23:24:24.421Z,1021.7
2022-11-07T23:29:56.356Z,1021.8
2022-11-07T23:35:23.100Z,1021.8
2022-11-07T23:40:43.805Z,1021.7
2022-11-07T23:46:37.885Z,1021.7
2022-11-07T23:51:46.848Z,1021.7
2022-11-07T23:57:31.044Z,1021.7
